sensor_id;sensor_type;location;lat;lon;timestamp;P1;durP1;ratioP1;P2;durP2;ratioP2
1925;SDS011;964;42.606;23.588;2022-09-16T00:00:53;4.00;;;2.00;;
1925;SDS011;964;42.606;23.588;2022-09-16T00:03:19;4.00;;;2.20;;
1925;SDS011;964;42.606;23.588;2022-09-16T00:05:47;6.90;;;2.60;;
1925;SDS011;964;42.606;23.588;2022-09-16T00:08:16;6.63;;;2.40;;
1925;SDS011;964;42.606;23.588;2022-09-16T00:10:44;4.07;;;2.43;;
1925;SDS011;964;42.606;23.588;2022-09-16T00:13:11;3.20;;;2.13;;
1925;SDS011;964;42.606;23.588;2022-09-16T00:15:40;10.03;;;2.47;;
1925;SDS011;964;42.606;23.588;2022-09-16T00:18:07;4.53;;;2.20;;
1925;SDS011;964;42.606;23.588;2022-09-16T00:20:35;6.60;;;2.40;;
1925;SDS011;964;42.606;23.588;2022-09-16T00:23:01;3.43;;;2.07;;
1925;SDS011;964;42.606;23.588;2022-09-16T00:25:29;4.00;;;2.10;;
1925;SDS011;964;42.606;23.588;2022-09-16T00:27:58;3.93;;;2.37;;
1925;SDS011;964;42.606;23.588;2022-09-16T00:30:24;5.17;;;2.37;;
1925;SDS011;964;42.606;23.588;2022-09-16T00:32:51;4.03;;;2.37;;
1925;SDS011;964;42.606;23.588;2022-09-16T00:35:18;2.40;;;2.00;;
1925;SDS011;964;42.606;23.588;2022-09-16T00:37:45;4.10;;;2.20;;
1925;SDS011;964;42.606;23.588;2022-09-16T00:40:12;3.90;;;2.43;;
1925;SDS011;964;42.606;23.588;2022-09-16T00:42:40;4.67;;;2.33;;
1925;SDS011;964;42.606;23.588;2022-09-16T00:45:12;7.90;;;2.10;;
1925;SDS011;964;42.606;23.588;2022-09-16T00:47:42;5.00;;;2.70;;
1925;SDS011;964;42.606;23.588;2022-09-16T00:50:13;3.70;;;2.47;;
1925;SDS011;964;42.606;23.588;2022-09-16T00:52:44;5.40;;;2.13;;
1925;SDS011;964;42.606;23.588;2022-09-16T00:55:13;6.83;;;2.30;;
1925;SDS011;964;42.606;23.588;2022-09-16T00:57:44;5.20;;;2.40;;
1925;SDS011;964;42.606;23.588;2022-09-16T01:00:12;6.30;;;2.10;;
1925;SDS011;964;42.606;23.588;2022-09-16T01:02:40;5.23;;;2.30;;
1925;SDS011;964;42.606;23.588;2022-09-16T01:05:10;5.90;;;2.87;;
1925;SDS011;964;42.606;23.588;2022-09-16T01:07:41;8.53;;;2.90;;
1925;SDS011;964;42.606;23.588;2022-09-16T01:10:09;25.20;;;4.30;;
1925;SDS011;964;42.606;23.588;2022-09-16T01:12:37;12.40;;;3.00;;
1925;SDS011;964;42.606;23.588;2022-09-16T01:15:08;9.87;;;2.97;;
1925;SDS011;964;42.606;23.588;2022-09-16T01:17:39;9.13;;;2.77;;
1925;SDS011;964;42.606;23.588;2022-09-16T01:20:43;9.30;;;2.80;;
1925;SDS011;964;42.606;23.588;2022-09-16T01:26:36;4.00;;;2.77;;
1925;SDS011;964;42.606;23.588;2022-09-16T01:29:20;7.60;;;2.40;;
1925;SDS011;964;42.606;23.588;2022-09-16T01:31:59;5.17;;;2.57;;
1925;SDS011;964;42.606;23.588;2022-09-16T01:34:35;15.93;;;4.77;;
1925;SDS011;964;42.606;23.588;2022-09-16T01:37:14;13.10;;;2.87;;
1925;SDS011;964;42.606;23.588;2022-09-16T01:39:55;4.90;;;3.33;;
1925;SDS011;964;42.606;23.588;2022-09-16T01:42:31;12.10;;;2.50;;
1925;SDS011;964;42.606;23.588;2022-09-16T01:45:04;3.43;;;2.77;;
1925;SDS011;964;42.606;23.588;2022-09-16T01:47:39;3.73;;;2.77;;
1925;SDS011;964;42.606;23.588;2022-09-16T01:50:16;4.97;;;2.50;;
1925;SDS011;964;42.606;23.588;2022-09-16T01:52:48;5.93;;;2.60;;
1925;SDS011;964;42.606;23.588;2022-09-16T01:55:27;7.17;;;3.23;;
1925;SDS011;964;42.606;23.588;2022-09-16T01:57:58;7.33;;;2.93;;
1925;SDS011;964;42.606;23.588;2022-09-16T02:00:31;5.20;;;2.57;;
1925;SDS011;964;42.606;23.588;2022-09-16T02:03:00;5.37;;;3.10;;
1925;SDS011;964;42.606;23.588;2022-09-16T02:05:32;8.57;;;3.20;;
1925;SDS011;964;42.606;23.588;2022-09-16T02:08:04;12.47;;;3.47;;
1925;SDS011;964;42.606;23.588;2022-09-16T02:10:34;8.27;;;3.10;;
1925;SDS011;964;42.606;23.588;2022-09-16T02:13:07;7.87;;;3.43;;
1925;SDS011;964;42.606;23.588;2022-09-16T02:15:38;6.03;;;4.00;;
1925;SDS011;964;42.606;23.588;2022-09-16T02:18:09;5.40;;;2.77;;
1925;SDS011;964;42.606;23.588;2022-09-16T02:20:39;3.77;;;2.00;;
1925;SDS011;964;42.606;23.588;2022-09-16T02:23:08;7.70;;;2.30;;
1925;SDS011;964;42.606;23.588;2022-09-16T02:25:40;3.10;;;1.93;;
1925;SDS011;964;42.606;23.588;2022-09-16T02:28:11;3.33;;;2.63;;
1925;SDS011;964;42.606;23.588;2022-09-16T02:30:44;6.47;;;2.80;;
1925;SDS011;964;42.606;23.588;2022-09-16T02:33:16;6.70;;;2.57;;
1925;SDS011;964;42.606;23.588;2022-09-16T02:35:45;6.70;;;2.60;;
1925;SDS011;964;42.606;23.588;2022-09-16T02:38:15;5.50;;;2.40;;
1925;SDS011;964;42.606;23.588;2022-09-16T02:40:49;3.60;;;2.17;;
1925;SDS011;964;42.606;23.588;2022-09-16T02:43:18;5.00;;;2.60;;
1925;SDS011;964;42.606;23.588;2022-09-16T02:45:47;6.13;;;3.07;;
1925;SDS011;964;42.606;23.588;2022-09-16T02:48:25;5.47;;;2.30;;
1925;SDS011;964;42.606;23.588;2022-09-16T02:51:01;8.13;;;2.47;;
1925;SDS011;964;42.606;23.588;2022-09-16T02:53:35;4.93;;;2.70;;
1925;SDS011;964;42.606;23.588;2022-09-16T02:56:10;4.80;;;2.30;;
1925;SDS011;964;42.606;23.588;2022-09-16T02:58:43;3.00;;;2.30;;
1925;SDS011;964;42.606;23.588;2022-09-16T03:01:10;3.30;;;2.40;;
1925;SDS011;964;42.606;23.588;2022-09-16T03:03:39;7.40;;;2.30;;
1925;SDS011;964;42.606;23.588;2022-09-16T03:06:12;3.00;;;2.20;;
1925;SDS011;964;42.606;23.588;2022-09-16T03:08:42;3.83;;;2.10;;
1925;SDS011;964;42.606;23.588;2022-09-16T03:11:13;5.23;;;2.43;;
1925;SDS011;964;42.606;23.588;2022-09-16T03:13:57;4.60;;;2.57;;
1925;SDS011;964;42.606;23.588;2022-09-16T03:16:39;3.23;;;2.10;;
1925;SDS011;964;42.606;23.588;2022-09-16T03:19:18;7.63;;;2.63;;
1925;SDS011;964;42.606;23.588;2022-09-16T03:21:54;5.77;;;3.07;;
1925;SDS011;964;42.606;23.588;2022-09-16T03:24:29;4.40;;;2.10;;
1925;SDS011;964;42.606;23.588;2022-09-16T03:27:04;4.50;;;2.50;;
1925;SDS011;964;42.606;23.588;2022-09-16T03:29:36;5.07;;;2.47;;
1925;SDS011;964;42.606;23.588;2022-09-16T03:32:09;4.87;;;2.50;;
1925;SDS011;964;42.606;23.588;2022-09-16T03:34:46;5.10;;;2.37;;
1925;SDS011;964;42.606;23.588;2022-09-16T03:37:19;9.03;;;2.30;;
1925;SDS011;964;42.606;23.588;2022-09-16T03:39:48;3.60;;;2.40;;
1925;SDS011;964;42.606;23.588;2022-09-16T03:42:18;3.77;;;3.40;;
1925;SDS011;964;42.606;23.588;2022-09-16T03:44:46;7.33;;;2.60;;
1925;SDS011;964;42.606;23.588;2022-09-16T03:47:14;5.13;;;2.50;;
1925;SDS011;964;42.606;23.588;2022-09-16T03:49:41;7.43;;;2.40;;
1925;SDS011;964;42.606;23.588;2022-09-16T03:52:09;3.50;;;2.33;;
1925;SDS011;964;42.606;23.588;2022-09-16T03:54:36;3.60;;;2.80;;
1925;SDS011;964;42.606;23.588;2022-09-16T03:57:03;4.30;;;2.63;;
1925;SDS011;964;42.606;23.588;2022-09-16T03:59:30;15.53;;;3.80;;
1925;SDS011;964;42.606;23.588;2022-09-16T04:01:57;19.30;;;5.47;;
1925;SDS011;964;42.606;23.588;2022-09-16T04:04:24;10.50;;;3.73;;
1925;SDS011;964;42.606;23.588;2022-09-16T04:06:51;7.13;;;2.70;;
1925;SDS011;964;42.606;23.588;2022-09-16T04:09:19;11.07;;;3.60;;
1925;SDS011;964;42.606;23.588;2022-09-16T04:11:45;10.27;;;3.13;;
1925;SDS011;964;42.606;23.588;2022-09-16T04:14:12;8.40;;;3.83;;
1925;SDS011;964;42.606;23.588;2022-09-16T04:16:39;5.00;;;3.30;;
1925;SDS011;964;42.606;23.588;2022-09-16T04:19:06;8.60;;;3.37;;
1925;SDS011;964;42.606;23.588;2022-09-16T04:21:33;10.90;;;2.83;;
1925;SDS011;964;42.606;23.588;2022-09-16T04:24:00;5.80;;;2.27;;
1925;SDS011;964;42.606;23.588;2022-09-16T04:26:28;4.90;;;2.37;;
1925;SDS011;964;42.606;23.588;2022-09-16T04:28:55;7.90;;;3.80;;
1925;SDS011;964;42.606;23.588;2022-09-16T04:31:22;7.40;;;2.80;;
1925;SDS011;964;42.606;23.588;2022-09-16T04:33:48;4.73;;;2.83;;
1925;SDS011;964;42.606;23.588;2022-09-16T04:36:16;6.27;;;3.13;;
1925;SDS011;964;42.606;23.588;2022-09-16T04:38:44;9.93;;;2.53;;
1925;SDS011;964;42.606;23.588;2022-09-16T04:41:13;4.83;;;2.57;;
1925;SDS011;964;42.606;23.588;2022-09-16T04:43:43;5.97;;;2.60;;
1925;SDS011;964;42.606;23.588;2022-09-16T04:46:10;9.73;;;2.90;;
1925;SDS011;964;42.606;23.588;2022-09-16T04:48:37;4.43;;;2.60;;
1925;SDS011;964;42.606;23.588;2022-09-16T04:51:05;7.83;;;2.47;;
1925;SDS011;964;42.606;23.588;2022-09-16T04:53:33;4.07;;;2.40;;
1925;SDS011;964;42.606;23.588;2022-09-16T04:56:04;6.40;;;2.87;;
1925;SDS011;964;42.606;23.588;2022-09-16T04:58:32;11.03;;;3.10;;
1925;SDS011;964;42.606;23.588;2022-09-16T05:01:04;11.93;;;2.57;;
1925;SDS011;964;42.606;23.588;2022-09-16T05:03:32;6.70;;;2.57;;
1925;SDS011;964;42.606;23.588;2022-09-16T05:06:06;5.90;;;2.30;;
1925;SDS011;964;42.606;23.588;2022-09-16T05:08:35;6.50;;;2.93;;
1925;SDS011;964;42.606;23.588;2022-09-16T05:11:05;10.00;;;2.40;;
1925;SDS011;964;42.606;23.588;2022-09-16T05:13:33;5.83;;;2.20;;
1925;SDS011;964;42.606;23.588;2022-09-16T05:16:01;6.47;;;2.50;;
1925;SDS011;964;42.606;23.588;2022-09-16T05:18:31;5.43;;;2.53;;
1925;SDS011;964;42.606;23.588;2022-09-16T05:20:58;4.00;;;1.90;;
1925;SDS011;964;42.606;23.588;2022-09-16T05:23:26;5.93;;;2.57;;
1925;SDS011;964;42.606;23.588;2022-09-16T05:25:53;8.83;;;2.60;;
1925;SDS011;964;42.606;23.588;2022-09-16T05:28:20;6.67;;;2.90;;
1925;SDS011;964;42.606;23.588;2022-09-16T05:30:47;8.07;;;2.90;;
1925;SDS011;964;42.606;23.588;2022-09-16T05:33:15;6.40;;;3.27;;
1925;SDS011;964;42.606;23.588;2022-09-16T05:35:42;6.10;;;2.47;;
1925;SDS011;964;42.606;23.588;2022-09-16T05:38:10;7.97;;;4.00;;
1925;SDS011;964;42.606;23.588;2022-09-16T05:40:37;6.53;;;2.33;;
1925;SDS011;964;42.606;23.588;2022-09-16T05:43:03;2.10;;;1.50;;
1925;SDS011;964;42.606;23.588;2022-09-16T05:45:30;3.33;;;1.97;;
1925;SDS011;964;42.606;23.588;2022-09-16T05:47:57;7.33;;;2.30;;
1925;SDS011;964;42.606;23.588;2022-09-16T05:50:25;4.90;;;2.00;;
1925;SDS011;964;42.606;23.588;2022-09-16T05:52:52;4.60;;;2.10;;
1925;SDS011;964;42.606;23.588;2022-09-16T05:55:18;4.50;;;1.77;;
1925;SDS011;964;42.606;23.588;2022-09-16T05:57:45;3.40;;;1.97;;
1925;SDS011;964;42.606;23.588;2022-09-16T06:00:12;3.13;;;1.90;;
1925;SDS011;964;42.606;23.588;2022-09-16T06:02:40;8.07;;;2.27;;
1925;SDS011;964;42.606;23.588;2022-09-16T06:05:06;4.53;;;2.40;;
1925;SDS011;964;42.606;23.588;2022-09-16T06:07:34;4.23;;;1.70;;
1925;SDS011;964;42.606;23.588;2022-09-16T06:10:02;9.40;;;2.10;;
1925;SDS011;964;42.606;23.588;2022-09-16T06:12:29;4.13;;;1.90;;
1925;SDS011;964;42.606;23.588;2022-09-16T06:14:56;6.40;;;3.00;;
1925;SDS011;964;42.606;23.588;2022-09-16T06:17:23;2.13;;;1.80;;
1925;SDS011;964;42.606;23.588;2022-09-16T06:19:49;15.70;;;2.07;;
1925;SDS011;964;42.606;23.588;2022-09-16T06:22:16;4.97;;;1.90;;
1925;SDS011;964;42.606;23.588;2022-09-16T06:24:44;7.70;;;2.60;;
1925;SDS011;964;42.606;23.588;2022-09-16T06:27:11;5.33;;;1.70;;
1925;SDS011;964;42.606;23.588;2022-09-16T06:29:38;3.70;;;1.63;;
1925;SDS011;964;42.606;23.588;2022-09-16T06:32:05;7.83;;;2.00;;
1925;SDS011;964;42.606;23.588;2022-09-16T06:34:31;4.20;;;2.47;;
1925;SDS011;964;42.606;23.588;2022-09-16T06:36:58;14.50;;;3.20;;
1925;SDS011;964;42.606;23.588;2022-09-16T06:39:25;4.93;;;2.03;;
1925;SDS011;964;42.606;23.588;2022-09-16T06:41:53;4.77;;;2.00;;
1925;SDS011;964;42.606;23.588;2022-09-16T06:44:20;4.07;;;1.97;;
1925;SDS011;964;42.606;23.588;2022-09-16T06:46:47;7.83;;;1.80;;
1925;SDS011;964;42.606;23.588;2022-09-16T06:49:14;5.10;;;1.97;;
1925;SDS011;964;42.606;23.588;2022-09-16T06:51:40;5.23;;;1.90;;
1925;SDS011;964;42.606;23.588;2022-09-16T06:54:07;4.30;;;2.10;;
1925;SDS011;964;42.606;23.588;2022-09-16T06:56:35;9.17;;;2.50;;
1925;SDS011;964;42.606;23.588;2022-09-16T06:59:05;4.97;;;1.70;;
1925;SDS011;964;42.606;23.588;2022-09-16T07:01:32;7.37;;;1.80;;
1925;SDS011;964;42.606;23.588;2022-09-16T07:04:01;3.50;;;2.00;;
1925;SDS011;964;42.606;23.588;2022-09-16T07:06:30;3.93;;;1.63;;
1925;SDS011;964;42.606;23.588;2022-09-16T07:08:57;3.30;;;1.80;;
1925;SDS011;964;42.606;23.588;2022-09-16T07:11:24;5.33;;;2.60;;
1925;SDS011;964;42.606;23.588;2022-09-16T07:13:51;4.13;;;2.03;;
1925;SDS011;964;42.606;23.588;2022-09-16T07:16:20;4.90;;;2.13;;
1925;SDS011;964;42.606;23.588;2022-09-16T07:18:51;4.00;;;2.00;;
1925;SDS011;964;42.606;23.588;2022-09-16T07:21:19;5.13;;;2.43;;
1925;SDS011;964;42.606;23.588;2022-09-16T07:23:48;4.33;;;2.80;;
1925;SDS011;964;42.606;23.588;2022-09-16T07:26:16;7.53;;;3.10;;
1925;SDS011;964;42.606;23.588;2022-09-16T07:28:45;6.13;;;2.07;;
1925;SDS011;964;42.606;23.588;2022-09-16T07:31:14;4.53;;;2.00;;
1925;SDS011;964;42.606;23.588;2022-09-16T07:33:44;5.10;;;2.23;;
1925;SDS011;964;42.606;23.588;2022-09-16T07:36:13;4.73;;;1.83;;
1925;SDS011;964;42.606;23.588;2022-09-16T07:38:42;3.40;;;2.00;;
1925;SDS011;964;42.606;23.588;2022-09-16T07:41:10;6.57;;;1.90;;
1925;SDS011;964;42.606;23.588;2022-09-16T07:43:37;3.73;;;1.90;;
1925;SDS011;964;42.606;23.588;2022-09-16T07:46:04;3.03;;;1.90;;
1925;SDS011;964;42.606;23.588;2022-09-16T07:48:32;3.30;;;1.77;;
1925;SDS011;964;42.606;23.588;2022-09-16T07:51:01;5.60;;;2.20;;
1925;SDS011;964;42.606;23.588;2022-09-16T07:53:30;3.17;;;2.10;;
1925;SDS011;964;42.606;23.588;2022-09-16T07:56:00;2.87;;;1.60;;
1925;SDS011;964;42.606;23.588;2022-09-16T07:58:29;6.50;;;1.90;;
1925;SDS011;964;42.606;23.588;2022-09-16T08:00:56;7.57;;;2.33;;
1925;SDS011;964;42.606;23.588;2022-09-16T08:03:23;5.40;;;1.90;;
1925;SDS011;964;42.606;23.588;2022-09-16T08:05:50;4.90;;;1.67;;
1925;SDS011;964;42.606;23.588;2022-09-16T08:08:19;7.57;;;2.33;;
1925;SDS011;964;42.606;23.588;2022-09-16T08:10:51;10.87;;;2.23;;
1925;SDS011;964;42.606;23.588;2022-09-16T08:13:19;4.70;;;1.93;;
1925;SDS011;964;42.606;23.588;2022-09-16T08:15:46;3.77;;;2.10;;
1925;SDS011;964;42.606;23.588;2022-09-16T08:18:13;3.90;;;2.03;;
1925;SDS011;964;42.606;23.588;2022-09-16T08:20:39;7.77;;;2.50;;
1925;SDS011;964;42.606;23.588;2022-09-16T08:23:06;5.37;;;1.80;;
1925;SDS011;964;42.606;23.588;2022-09-16T08:25:34;4.50;;;1.80;;
1925;SDS011;964;42.606;23.588;2022-09-16T08:28:02;5.07;;;2.50;;
1925;SDS011;964;42.606;23.588;2022-09-16T08:30:29;2.40;;;2.00;;
1925;SDS011;964;42.606;23.588;2022-09-16T08:32:56;4.22;;;2.08;;
1925;SDS011;964;42.606;23.588;2022-09-16T08:35:23;4.93;;;2.13;;
1925;SDS011;964;42.606;23.588;2022-09-16T08:37:50;6.20;;;2.37;;
1925;SDS011;964;42.606;23.588;2022-09-16T08:40:20;3.40;;;2.17;;
1925;SDS011;964;42.606;23.588;2022-09-16T08:42:57;10.27;;;2.42;;
1925;SDS011;964;42.606;23.588;2022-09-16T08:45:30;7.23;;;2.27;;
1925;SDS011;964;42.606;23.588;2022-09-16T08:48:06;7.57;;;2.45;;
1925;SDS011;964;42.606;23.588;2022-09-16T08:53:56;4.47;;;2.30;;
1925;SDS011;964;42.606;23.588;2022-09-16T08:56:26;5.03;;;2.13;;
1925;SDS011;964;42.606;23.588;2022-09-16T08:58:57;7.30;;;2.17;;
1925;SDS011;964;42.606;23.588;2022-09-16T09:01:27;6.47;;;2.17;;
1925;SDS011;964;42.606;23.588;2022-09-16T09:04:00;3.33;;;2.20;;
1925;SDS011;964;42.606;23.588;2022-09-16T09:06:31;6.67;;;2.60;;
1925;SDS011;964;42.606;23.588;2022-09-16T09:09:15;5.97;;;2.13;;
1925;SDS011;964;42.606;23.588;2022-09-16T09:12:05;4.60;;;2.43;;
1925;SDS011;964;42.606;23.588;2022-09-16T09:14:45;4.70;;;2.13;;
1925;SDS011;964;42.606;23.588;2022-09-16T09:17:28;4.73;;;2.27;;
1925;SDS011;964;42.606;23.588;2022-09-16T09:20:05;4.73;;;1.73;;
1925;SDS011;964;42.606;23.588;2022-09-16T09:22:49;11.07;;;2.70;;
1925;SDS011;964;42.606;23.588;2022-09-16T09:25:29;10.30;;;2.20;;
1925;SDS011;964;42.606;23.588;2022-09-16T09:28:04;4.73;;;2.57;;
1925;SDS011;964;42.606;23.588;2022-09-16T09:30:49;3.77;;;2.37;;
1925;SDS011;964;42.606;23.588;2022-09-16T09:33:24;7.43;;;2.53;;
1925;SDS011;964;42.606;23.588;2022-09-16T09:36:10;7.40;;;2.70;;
1925;SDS011;964;42.606;23.588;2022-09-16T09:38:49;5.43;;;2.33;;
1925;SDS011;964;42.606;23.588;2022-09-16T09:41:27;8.10;;;3.00;;
1925;SDS011;964;42.606;23.588;2022-09-16T09:44:00;6.87;;;2.90;;
1925;SDS011;964;42.606;23.588;2022-09-16T09:46:47;11.93;;;3.37;;
1925;SDS011;964;42.606;23.588;2022-09-16T09:49:20;3.53;;;2.27;;
1925;SDS011;964;42.606;23.588;2022-09-16T09:51:53;4.13;;;2.20;;
1925;SDS011;964;42.606;23.588;2022-09-16T09:54:25;4.60;;;3.07;;
1925;SDS011;964;42.606;23.588;2022-09-16T09:56:55;7.40;;;2.50;;
1925;SDS011;964;42.606;23.588;2022-09-16T09:59:27;5.60;;;2.93;;
1925;SDS011;964;42.606;23.588;2022-09-16T10:01:59;5.60;;;2.20;;
1925;SDS011;964;42.606;23.588;2022-09-16T10:04:27;4.77;;;2.40;;
1925;SDS011;964;42.606;23.588;2022-09-16T10:06:56;7.43;;;3.60;;
1925;SDS011;964;42.606;23.588;2022-09-16T10:09:23;5.73;;;3.00;;
1925;SDS011;964;42.606;23.588;2022-09-16T10:11:51;5.13;;;2.37;;
1925;SDS011;964;42.606;23.588;2022-09-16T10:14:24;7.67;;;2.17;;
1925;SDS011;964;42.606;23.588;2022-09-16T10:16:55;7.13;;;2.20;;
1925;SDS011;964;42.606;23.588;2022-09-16T10:19:25;5.80;;;2.27;;
1925;SDS011;964;42.606;23.588;2022-09-16T10:21:53;4.27;;;2.73;;
1925;SDS011;964;42.606;23.588;2022-09-16T10:24:29;5.47;;;2.27;;
1925;SDS011;964;42.606;23.588;2022-09-16T10:26:58;5.70;;;2.27;;
1925;SDS011;964;42.606;23.588;2022-09-16T10:29:26;4.90;;;2.30;;
1925;SDS011;964;42.606;23.588;2022-09-16T10:31:53;10.80;;;2.80;;
1925;SDS011;964;42.606;23.588;2022-09-16T10:34:25;4.87;;;2.60;;
1925;SDS011;964;42.606;23.588;2022-09-16T10:36:58;2.80;;;2.10;;
1925;SDS011;964;42.606;23.588;2022-09-16T10:39:26;8.43;;;2.90;;
1925;SDS011;964;42.606;23.588;2022-09-16T10:41:55;7.03;;;2.50;;
1925;SDS011;964;42.606;23.588;2022-09-16T10:44:23;9.53;;;3.60;;
1925;SDS011;964;42.606;23.588;2022-09-16T10:46:53;8.27;;;3.30;;
1925;SDS011;964;42.606;23.588;2022-09-16T10:49:26;6.30;;;2.43;;
1925;SDS011;964;42.606;23.588;2022-09-16T10:52:11;16.37;;;3.70;;
1925;SDS011;964;42.606;23.588;2022-09-16T10:54:40;7.50;;;2.23;;
1925;SDS011;964;42.606;23.588;2022-09-16T10:57:18;11.33;;;2.80;;
1925;SDS011;964;42.606;23.588;2022-09-16T10:59:54;9.93;;;3.33;;
1925;SDS011;964;42.606;23.588;2022-09-16T11:02:30;5.57;;;2.40;;
1925;SDS011;964;42.606;23.588;2022-09-16T11:05:23;5.60;;;2.07;;
1925;SDS011;964;42.606;23.588;2022-09-16T11:07:55;2.53;;;1.93;;
1925;SDS011;964;42.606;23.588;2022-09-16T11:10:31;3.00;;;1.90;;
1925;SDS011;964;42.606;23.588;2022-09-16T11:16:05;3.43;;;1.63;;
1925;SDS011;964;42.606;23.588;2022-09-16T11:18:46;1.37;;;1.20;;
1925;SDS011;964;42.606;23.588;2022-09-16T11:21:25;3.37;;;1.40;;
1925;SDS011;964;42.606;23.588;2022-09-16T11:24:06;2.73;;;1.53;;
1925;SDS011;964;42.606;23.588;2022-09-16T11:26:45;1.73;;;1.03;;
1925;SDS011;964;42.606;23.588;2022-09-16T11:29:35;6.10;;;1.23;;
1925;SDS011;964;42.606;23.588;2022-09-16T11:32:18;5.13;;;1.53;;
1925;SDS011;964;42.606;23.588;2022-09-16T11:35:10;1.20;;;0.90;;
1925;SDS011;964;42.606;23.588;2022-09-16T11:37:56;1.37;;;0.83;;
1925;SDS011;964;42.606;23.588;2022-09-16T11:40:31;1.00;;;0.83;;
1925;SDS011;964;42.606;23.588;2022-09-16T11:43:10;2.23;;;1.00;;
1925;SDS011;964;42.606;23.588;2022-09-16T11:45:50;2.43;;;1.40;;
1925;SDS011;964;42.606;23.588;2022-09-16T11:48:26;3.40;;;1.80;;
1925;SDS011;964;42.606;23.588;2022-09-16T11:51:06;2.07;;;1.10;;
1925;SDS011;964;42.606;23.588;2022-09-16T11:53:50;1.73;;;1.30;;
1925;SDS011;964;42.606;23.588;2022-09-16T11:56:29;2.03;;;1.20;;
1925;SDS011;964;42.606;23.588;2022-09-16T11:59:03;1.63;;;0.90;;
1925;SDS011;964;42.606;23.588;2022-09-16T12:01:38;1.70;;;0.80;;
1925;SDS011;964;42.606;23.588;2022-09-16T12:04:10;3.13;;;1.00;;
1925;SDS011;964;42.606;23.588;2022-09-16T12:06:44;3.63;;;0.83;;
1925;SDS011;964;42.606;23.588;2022-09-16T12:09:21;0.90;;;0.70;;
1925;SDS011;964;42.606;23.588;2022-09-16T12:11:54;1.33;;;0.80;;
1925;SDS011;964;42.606;23.588;2022-09-16T12:14:30;1.77;;;0.80;;
1925;SDS011;964;42.606;23.588;2022-09-16T12:17:02;1.67;;;0.80;;
1925;SDS011;964;42.606;23.588;2022-09-16T12:19:33;1.90;;;0.97;;
1925;SDS011;964;42.606;23.588;2022-09-16T12:22:07;1.10;;;0.97;;
1925;SDS011;964;42.606;23.588;2022-09-16T12:24:42;1.77;;;0.87;;
1925;SDS011;964;42.606;23.588;2022-09-16T12:27:24;1.77;;;0.80;;
1925;SDS011;964;42.606;23.588;2022-09-16T12:30:00;1.60;;;1.10;;
1925;SDS011;964;42.606;23.588;2022-09-16T12:32:31;2.53;;;1.40;;
1925;SDS011;964;42.606;23.588;2022-09-16T12:35:09;5.30;;;1.30;;
1925;SDS011;964;42.606;23.588;2022-09-16T12:37:42;1.67;;;1.10;;
1925;SDS011;964;42.606;23.588;2022-09-16T12:40:16;3.23;;;1.60;;
1925;SDS011;964;42.606;23.588;2022-09-16T12:46:06;2.30;;;1.30;;
1925;SDS011;964;42.606;23.588;2022-09-16T12:49:04;3.80;;;1.20;;
1925;SDS011;964;42.606;23.588;2022-09-16T12:54:59;4.73;;;1.67;;
1925;SDS011;964;42.606;23.588;2022-09-16T12:57:52;2.60;;;1.70;;
1925;SDS011;964;42.606;23.588;2022-09-16T13:00:34;3.30;;;1.33;;
1925;SDS011;964;42.606;23.588;2022-09-16T13:03:07;2.30;;;1.53;;
1925;SDS011;964;42.606;23.588;2022-09-16T13:05:42;3.20;;;2.07;;
1925;SDS011;964;42.606;23.588;2022-09-16T13:08:17;4.23;;;3.43;;
1925;SDS011;964;42.606;23.588;2022-09-16T13:10:52;4.70;;;2.40;;
1925;SDS011;964;42.606;23.588;2022-09-16T13:13:26;5.90;;;2.23;;
1925;SDS011;964;42.606;23.588;2022-09-16T13:15:57;5.13;;;2.57;;
1925;SDS011;964;42.606;23.588;2022-09-16T13:18:36;3.80;;;1.70;;
1925;SDS011;964;42.606;23.588;2022-09-16T13:21:05;5.37;;;2.00;;
1925;SDS011;964;42.606;23.588;2022-09-16T13:23:39;4.60;;;2.67;;
1925;SDS011;964;42.606;23.588;2022-09-16T13:26:10;2.13;;;1.53;;
1925;SDS011;964;42.606;23.588;2022-09-16T13:28:38;3.03;;;2.07;;
1925;SDS011;964;42.606;23.588;2022-09-16T13:31:13;8.33;;;2.20;;
1925;SDS011;964;42.606;23.588;2022-09-16T13:33:43;4.67;;;2.23;;
1925;SDS011;964;42.606;23.588;2022-09-16T13:36:12;3.00;;;1.87;;
1925;SDS011;964;42.606;23.588;2022-09-16T13:38:42;7.03;;;2.07;;
1925;SDS011;964;42.606;23.588;2022-09-16T13:41:12;6.90;;;2.60;;
1925;SDS011;964;42.606;23.588;2022-09-16T13:43:50;5.77;;;3.23;;
1925;SDS011;964;42.606;23.588;2022-09-16T13:46:25;5.57;;;2.00;;
1925;SDS011;964;42.606;23.588;2022-09-16T13:49:02;3.20;;;2.20;;
1925;SDS011;964;42.606;23.588;2022-09-16T13:51:52;5.23;;;2.40;;
1925;SDS011;964;42.606;23.588;2022-09-16T13:54:28;4.27;;;2.27;;
1925;SDS011;964;42.606;23.588;2022-09-16T13:57:02;2.40;;;2.07;;
1925;SDS011;964;42.606;23.588;2022-09-16T13:59:42;3.67;;;2.00;;
1925;SDS011;964;42.606;23.588;2022-09-16T14:02:22;3.67;;;1.87;;
1925;SDS011;964;42.606;23.588;2022-09-16T14:05:06;3.90;;;1.90;;
1925;SDS011;964;42.606;23.588;2022-09-16T14:07:44;2.70;;;1.83;;
1925;SDS011;964;42.606;23.588;2022-09-16T14:10:17;3.10;;;1.77;;
1925;SDS011;964;42.606;23.588;2022-09-16T14:12:52;4.10;;;2.30;;
1925;SDS011;964;42.606;23.588;2022-09-16T14:15:26;6.23;;;2.13;;
1925;SDS011;964;42.606;23.588;2022-09-16T14:17:55;4.73;;;2.00;;
1925;SDS011;964;42.606;23.588;2022-09-16T14:20:26;2.70;;;1.70;;
1925;SDS011;964;42.606;23.588;2022-09-16T14:22:59;2.73;;;2.10;;
1925;SDS011;964;42.606;23.588;2022-09-16T14:25:28;2.50;;;1.90;;
1925;SDS011;964;42.606;23.588;2022-09-16T14:28:06;7.33;;;2.20;;
1925;SDS011;964;42.606;23.588;2022-09-16T14:30:35;4.57;;;2.00;;
1925;SDS011;964;42.606;23.588;2022-09-16T14:33:02;4.23;;;2.40;;
1925;SDS011;964;42.606;23.588;2022-09-16T14:35:32;4.90;;;2.83;;
1925;SDS011;964;42.606;23.588;2022-09-16T14:37:59;2.33;;;2.07;;
1925;SDS011;964;42.606;23.588;2022-09-16T14:40:28;3.33;;;2.00;;
1925;SDS011;964;42.606;23.588;2022-09-16T14:42:56;5.50;;;1.90;;
1925;SDS011;964;42.606;23.588;2022-09-16T14:45:27;4.20;;;2.07;;
1925;SDS011;964;42.606;23.588;2022-09-16T14:47:57;3.50;;;1.70;;
1925;SDS011;964;42.606;23.588;2022-09-16T14:50:29;4.10;;;1.77;;
1925;SDS011;964;42.606;23.588;2022-09-16T14:52:58;5.90;;;1.97;;
1925;SDS011;964;42.606;23.588;2022-09-16T14:55:27;2.23;;;1.80;;
1925;SDS011;964;42.606;23.588;2022-09-16T14:57:55;6.63;;;2.00;;
1925;SDS011;964;42.606;23.588;2022-09-16T15:00:23;4.43;;;2.03;;
1925;SDS011;964;42.606;23.588;2022-09-16T15:02:53;1.90;;;1.80;;
1925;SDS011;964;42.606;23.588;2022-09-16T15:05:26;5.93;;;1.80;;
1925;SDS011;964;42.606;23.588;2022-09-16T15:08:01;3.87;;;1.73;;
1925;SDS011;964;42.606;23.588;2022-09-16T15:10:34;5.53;;;2.10;;
1925;SDS011;964;42.606;23.588;2022-09-16T15:13:01;4.53;;;1.73;;
1925;SDS011;964;42.606;23.588;2022-09-16T15:15:34;3.87;;;2.23;;
1925;SDS011;964;42.606;23.588;2022-09-16T15:18:03;2.10;;;1.90;;
1925;SDS011;964;42.606;23.588;2022-09-16T15:20:34;2.27;;;1.80;;
1925;SDS011;964;42.606;23.588;2022-09-16T15:23:05;2.33;;;1.60;;
1925;SDS011;964;42.606;23.588;2022-09-16T15:25:33;4.63;;;1.90;;
1925;SDS011;964;42.606;23.588;2022-09-16T15:28:03;1.90;;;1.70;;
1925;SDS011;964;42.606;23.588;2022-09-16T15:30:31;2.40;;;1.50;;
1925;SDS011;964;42.606;23.588;2022-09-16T15:32:59;3.17;;;1.40;;
1925;SDS011;964;42.606;23.588;2022-09-16T15:35:26;2.37;;;2.03;;
1925;SDS011;964;42.606;23.588;2022-09-16T15:38:08;2.57;;;1.63;;
1925;SDS011;964;42.606;23.588;2022-09-16T15:40:37;3.10;;;1.50;;
1925;SDS011;964;42.606;23.588;2022-09-16T15:43:10;3.00;;;1.63;;
1925;SDS011;964;42.606;23.588;2022-09-16T15:45:40;2.90;;;1.60;;
1925;SDS011;964;42.606;23.588;2022-09-16T15:48:11;4.77;;;1.90;;
1925;SDS011;964;42.606;23.588;2022-09-16T15:50:43;4.07;;;1.60;;
1925;SDS011;964;42.606;23.588;2022-09-16T15:53:16;4.90;;;2.50;;
1925;SDS011;964;42.606;23.588;2022-09-16T15:55:51;2.60;;;2.17;;
1925;SDS011;964;42.606;23.588;2022-09-16T15:58:24;3.53;;;2.53;;